createdAt,value
2019-03-20T00:00:52.426Z,0.00
2019-03-20T00:01:52.410Z,0.00
2019-03-20T00:02:52.401Z,0.00
2019-03-20T00:03:52.402Z,0.00
2019-03-20T00:04:52.379Z,0.00
2019-03-20T00:05:52.367Z,0.00
2019-03-20T00:06:52.359Z,0.00
2019-03-20T00:07:52.349Z,0.00
2019-03-20T00:08:52.346Z,0.00
2019-03-20T00:09:52.326Z,0.00
2019-03-20T00:10:52.331Z,0.00
2019-03-20T00:11:52.305Z,0.00
2019-03-20T00:12:52.295Z,0.00
2019-03-20T00:13:52.293Z,0.00
2019-03-20T00:14:52.274Z,0.00
2019-03-20T00:15:52.264Z,0.00
2019-03-20T00:16:52.251Z,0.00
2019-03-20T00:17:52.241Z,0.00
2019-03-20T00:18:52.237Z,0.00
2019-03-20T00:19:52.225Z,0.00
2019-03-20T00:20:52.210Z,0.00
2019-03-20T00:21:52.199Z,0.00
2019-03-20T00:22:52.191Z,0.00
2019-03-20T00:23:52.186Z,0.00
2019-03-20T00:24:52.170Z,0.00
2019-03-20T00:25:52.153Z,0.00
2019-03-20T00:26:52.148Z,0.00
2019-03-20T00:27:52.133Z,0.00
2019-03-20T00:28:52.137Z,0.00
2019-03-20T00:29:52.113Z,0.00
2019-03-20T00:30:52.101Z,0.00
2019-03-20T00:31:52.093Z,0.00
2019-03-20T00:32:52.080Z,0.00
2019-03-20T00:33:52.078Z,0.00
2019-03-20T00:35:00.537Z,0.00
2019-03-20T00:35:53.049Z,0.00
2019-03-20T00:36:52.037Z,0.00
2019-03-20T00:37:52.026Z,0.00
2019-03-20T00:38:52.028Z,0.00
2019-03-20T00:39:52.017Z,0.00
2019-03-20T00:40:51.994Z,0.00
2019-03-20T00:41:51.984Z,0.00
2019-03-20T00:42:51.972Z,0.00
2019-03-20T00:43:51.972Z,0.00
2019-03-20T00:44:51.951Z,0.00
2019-03-20T00:45:51.947Z,0.00
2019-03-20T00:46:51.931Z,0.00
2019-03-20T00:47:51.923Z,0.00
2019-03-20T00:48:51.917Z,0.00
2019-03-20T00:49:51.898Z,0.00
2019-03-20T00:50:51.890Z,0.00
2019-03-20T00:51:51.877Z,0.00
2019-03-20T00:52:51.870Z,0.00
2019-03-20T00:53:51.867Z,0.00
2019-03-20T00:54:51.850Z,0.00
2019-03-20T00:55:51.838Z,0.00
2019-03-20T00:56:51.824Z,0.00
2019-03-20T00:57:51.814Z,0.00
2019-03-20T00:58:51.826Z,0.00
2019-03-20T00:59:51.798Z,0.00
2019-03-20T01:00:51.782Z,0.00
2019-03-20T01:01:51.780Z,0.00
2019-03-20T01:02:51.769Z,0.00
2019-03-20T01:03:51.759Z,0.00
2019-03-20T01:04:51.738Z,0.00
2019-03-20T01:05:51.732Z,0.00
2019-03-20T01:06:51.723Z,0.00
2019-03-20T01:07:51.712Z,0.00
2019-03-20T01:08:51.705Z,0.00
2019-03-20T01:09:51.687Z,0.00
2019-03-20T01:10:51.684Z,0.00
2019-03-20T01:11:51.665Z,0.00
2019-03-20T01:12:51.662Z,0.00
2019-03-20T01:13:51.680Z,0.00
2019-03-20T01:14:51.636Z,0.00
2019-03-20T01:15:51.626Z,0.00
2019-03-20T01:16:51.639Z,0.00
2019-03-20T01:17:51.602Z,0.00
2019-03-20T01:18:51.591Z,0.00
2019-03-20T01:19:51.589Z,0.00
2019-03-20T01:20:51.570Z,0.00
2019-03-20T01:21:51.559Z,0.00
2019-03-20T01:22:51.551Z,0.00
2019-03-20T01:23:51.535Z,0.00
2019-03-20T01:24:51.540Z,0.00
2019-03-20T01:25:51.518Z,0.00
2019-03-20T01:26:51.506Z,0.00
2019-03-20T01:27:51.518Z,0.00
2019-03-20T01:28:51.484Z,0.00
2019-03-20T01:29:51.484Z,0.00
2019-03-20T01:30:51.461Z,0.00
2019-03-20T01:31:51.450Z,0.00
2019-03-20T01:32:51.442Z,0.00
2019-03-20T01:33:51.435Z,0.00
2019-03-20T01:34:51.436Z,0.00
2019-03-20T01:35:51.410Z,0.00
2019-03-20T01:36:51.406Z,0.00
2019-03-20T01:37:51.404Z,0.00
2019-03-20T01:38:51.376Z,0.00
2019-03-20T01:39:51.377Z,0.00
2019-03-20T01:40:51.356Z,0.00
2019-03-20T01:41:51.344Z,0.00
2019-03-20T01:42:51.333Z,0.00
2019-03-20T01:43:51.322Z,0.00
2019-03-20T01:44:51.322Z,0.00
2019-03-20T01:45:51.315Z,0.00
2019-03-20T01:46:51.296Z,0.00
2019-03-20T01:47:51.279Z,0.00
2019-03-20T01:48:51.272Z,0.00
2019-03-20T01:49:51.267Z,0.00
2019-03-20T01:50:51.246Z,0.00
2019-03-20T01:51:51.240Z,0.00
2019-03-20T01:52:51.225Z,0.00
2019-03-20T01:53:51.219Z,0.00
2019-03-20T01:54:51.223Z,0.00
2019-03-20T01:55:51.200Z,0.00
2019-03-20T01:56:51.182Z,0.00
2019-03-20T01:57:51.175Z,0.00
2019-03-20T01:58:51.165Z,0.00
2019-03-20T01:59:51.165Z,0.00
2019-03-20T02:00:51.141Z,0.00
2019-03-20T02:01:51.130Z,0.00
2019-03-20T02:02:51.120Z,0.00
2019-03-20T02:03:51.113Z,0.00
2019-03-20T02:04:51.112Z,0.00
2019-03-20T02:05:51.089Z,0.00
2019-03-20T02:06:51.078Z,0.00
2019-03-20T02:07:51.070Z,0.00
2019-03-20T02:08:51.059Z,0.00
2019-03-20T02:09:51.053Z,0.00
2019-03-20T02:10:51.036Z,0.00
2019-03-20T02:11:51.030Z,0.00
2019-03-20T02:12:51.016Z,0.00
2019-03-20T02:13:51.004Z,0.00
2019-03-20T02:14:51.003Z,0.00
2019-03-20T02:15:50.980Z,0.00
2019-03-20T02:16:50.969Z,0.00
2019-03-20T02:17:50.962Z,0.00
2019-03-20T02:19:02.115Z,0.00
2019-03-20T02:19:50.950Z,0.00
2019-03-20T02:20:50.927Z,0.00
2019-03-20T02:21:50.916Z,0.00
2019-03-20T02:22:50.912Z,0.00
2019-03-20T02:23:50.897Z,0.00
2019-03-20T02:24:50.896Z,0.00
2019-03-20T02:25:50.874Z,0.00
2019-03-20T02:26:50.864Z,0.00
2019-03-20T02:27:50.853Z,0.00
2019-03-20T02:28:50.845Z,0.00
2019-03-20T02:31:35.848Z,0.00
2019-03-20T02:31:59.588Z,0.00
2019-03-20T02:32:59.578Z,0.00
2019-03-20T02:33:59.568Z,0.00
2019-03-20T02:34:59.571Z,0.00
2019-03-20T02:35:59.553Z,0.00
2019-03-20T02:36:59.538Z,0.00
2019-03-20T02:37:59.523Z,0.00
2019-03-20T02:38:59.511Z,0.00
2019-03-20T02:39:59.514Z,0.00
2019-03-20T02:40:59.496Z,0.00
2019-03-20T02:41:59.483Z,0.00
2019-03-20T02:42:59.473Z,0.00
2019-03-20T02:43:59.462Z,0.00
2019-03-20T02:44:59.461Z,0.00
2019-03-20T02:45:59.436Z,0.00
2019-03-20T02:46:59.430Z,0.00
2019-03-20T02:47:59.421Z,0.00
2019-03-20T02:48:59.427Z,0.00
2019-03-20T02:49:59.397Z,0.00
2019-03-20T02:50:59.394Z,0.00
2019-03-20T02:51:59.377Z,0.00
2019-03-20T02:52:59.364Z,0.00
2019-03-20T02:53:59.354Z,0.00
2019-03-20T02:54:59.343Z,0.00
2019-03-20T02:55:59.344Z,0.00
2019-03-20T02:56:59.321Z,0.00
2019-03-20T02:57:59.318Z,0.00
2019-03-20T02:58:59.310Z,0.00
2019-03-20T02:59:59.293Z,0.00
2019-03-20T03:00:59.324Z,0.00
2019-03-20T03:01:59.270Z,0.00
2019-03-20T03:02:59.257Z,0.00
2019-03-20T03:03:59.249Z,0.00
2019-03-20T03:04:59.235Z,0.00
2019-03-20T03:06:06.566Z,0.00
2019-03-20T03:07:00.214Z,0.00
2019-03-20T03:07:59.204Z,0.00
2019-03-20T03:08:59.196Z,0.00
2019-03-20T03:09:59.184Z,0.00
2019-03-20T03:10:59.187Z,0.00
2019-03-20T03:11:59.160Z,0.00
2019-03-20T03:12:59.150Z,0.00
2019-03-20T03:13:59.141Z,0.00
2019-03-20T03:14:59.129Z,0.00
2019-03-20T03:15:59.129Z,0.00
2019-03-20T03:16:59.109Z,0.00
2019-03-20T03:17:59.096Z,0.00
2019-03-20T03:18:59.088Z,0.00
2019-03-20T03:19:59.075Z,0.00
2019-03-20T03:20:59.075Z,0.00
2019-03-20T03:21:59.059Z,0.00
2019-03-20T03:22:59.043Z,0.00
2019-03-20T03:23:59.033Z,0.00
2019-03-20T03:24:59.025Z,0.00
2019-03-20T03:25:59.026Z,0.00
2019-03-20T03:26:59.001Z,0.00
2019-03-20T03:27:58.991Z,0.00
2019-03-20T03:28:58.988Z,0.00
2019-03-20T03:29:58.970Z,0.00
2019-03-20T03:30:58.969Z,0.00
2019-03-20T03:31:58.947Z,0.00
2019-03-20T03:32:58.954Z,0.00
2019-03-20T03:33:58.930Z,0.00
2019-03-20T03:34:58.952Z,0.00
2019-03-20T03:35:58.922Z,0.00
2019-03-20T03:36:58.893Z,0.00
2019-03-20T03:37:58.889Z,0.00
2019-03-20T03:38:58.878Z,0.00
2019-03-20T03:39:58.862Z,0.00
2019-03-20T03:40:58.864Z,0.00
2019-03-20T03:41:58.847Z,0.00
2019-03-20T03:42:58.834Z,0.00
2019-03-20T03:43:58.821Z,0.00
2019-03-20T03:44:58.811Z,0.00
2019-03-20T03:45:58.811Z,0.00
2019-03-20T03:46:58.788Z,0.00
2019-03-20T03:47:58.781Z,0.00
2019-03-20T03:48:58.765Z,0.00
2019-03-20T03:49:58.757Z,0.00
2019-03-20T03:50:58.755Z,0.00
2019-03-20T03:51:58.733Z,0.00
2019-03-20T03:52:58.722Z,0.00
2019-03-20T03:53:58.715Z,0.00
2019-03-20T03:54:58.703Z,0.00
2019-03-20T03:55:58.709Z,0.00
2019-03-20T03:56:58.680Z,0.00
2019-03-20T03:57:58.671Z,0.00
2019-03-20T03:58:58.659Z,0.00
2019-03-20T03:59:58.651Z,0.00
2019-03-20T04:00:58.648Z,0.00
2019-03-20T04:01:58.628Z,0.00
2019-03-20T04:02:58.621Z,0.00
2019-03-20T04:03:58.607Z,0.00
2019-03-20T04:04:58.597Z,0.00
2019-03-20T04:05:58.594Z,0.00
2019-03-20T04:06:58.576Z,0.00
2019-03-20T04:07:58.563Z,0.00
2019-03-20T04:08:58.559Z,0.00
2019-03-20T04:09:58.553Z,0.00
2019-03-20T04:10:58.543Z,0.00
2019-03-20T04:11:58.522Z,0.00
2019-03-20T04:12:58.510Z,0.00
2019-03-20T04:13:58.499Z,0.00
2019-03-20T04:14:58.491Z,0.00
2019-03-20T04:15:58.496Z,0.00
2019-03-20T04:16:58.468Z,0.00
2019-03-20T04:17:58.461Z,0.00
2019-03-20T04:18:58.451Z,0.00
2019-03-20T04:19:58.438Z,0.00
2019-03-20T04:20:58.451Z,0.00
2019-03-20T04:21:58.415Z,0.00
2019-03-20T04:22:58.404Z,0.00
2019-03-20T04:23:58.395Z,0.00
2019-03-20T04:24:58.405Z,0.00
2019-03-20T04:25:58.370Z,0.00
2019-03-20T04:26:58.375Z,0.00
2019-03-20T04:27:58.350Z,0.00
2019-03-20T04:28:58.344Z,0.00
2019-03-20T04:29:58.382Z,0.00
2019-03-20T04:30:58.339Z,0.00
2019-03-20T04:31:58.321Z,0.00
2019-03-20T04:32:58.299Z,0.00
2019-03-20T04:33:58.291Z,0.00
2019-03-20T04:34:58.279Z,0.00
2019-03-20T04:35:58.269Z,0.00
2019-03-20T04:36:58.269Z,0.00
2019-03-20T04:37:58.274Z,0.00
2019-03-20T04:38:58.233Z,0.00
2019-03-20T04:39:58.222Z,0.00
2019-03-20T04:40:58.213Z,0.00
2019-03-20T04:41:58.221Z,0.00
2019-03-20T04:42:58.190Z,0.00
2019-03-20T04:43:58.181Z,0.00
2019-03-20T04:44:58.173Z,0.00
2019-03-20T04:45:58.162Z,0.00
2019-03-20T04:46:58.157Z,0.00
2019-03-20T04:47:58.137Z,0.00
2019-03-20T04:48:58.128Z,0.00
2019-03-20T04:49:58.115Z,0.00
2019-03-20T04:50:58.106Z,0.00
2019-03-20T04:51:58.107Z,0.00
2019-03-20T04:52:58.087Z,0.00
2019-03-20T04:53:58.073Z,0.00
2019-03-20T04:54:58.062Z,0.00
2019-03-20T04:55:58.053Z,0.00
2019-03-20T04:56:58.053Z,0.00
2019-03-20T04:57:58.032Z,0.00
2019-03-20T04:58:58.022Z,0.00
2019-03-20T04:59:58.009Z,0.00
2019-03-20T05:00:58.001Z,0.00
2019-03-20T05:01:58.000Z,0.00
2019-03-20T05:02:57.979Z,0.00
2019-03-20T05:03:57.968Z,0.00
2019-03-20T05:04:57.957Z,0.00
2019-03-20T05:05:57.945Z,0.00
2019-03-20T05:06:59.294Z,0.00
2019-03-20T05:07:57.925Z,5.62
2019-03-20T05:08:57.914Z,5.62
2019-03-20T05:09:57.904Z,5.62
2019-03-20T05:10:57.895Z,5.62
2019-03-20T05:11:57.900Z,5.62
2019-03-20T05:12:57.871Z,5.62
2019-03-20T05:13:57.861Z,5.62
2019-03-20T05:14:57.852Z,5.62
2019-03-20T05:15:57.841Z,5.62
2019-03-20T05:16:57.839Z,11.25
2019-03-20T05:17:57.822Z,11.25
2019-03-20T05:18:57.810Z,11.25
2019-03-20T05:19:57.801Z,11.25
2019-03-20T05:20:57.789Z,11.25
2019-03-20T05:21:57.802Z,11.25
2019-03-20T05:22:57.772Z,16.88
2019-03-20T05:23:57.755Z,16.88
2019-03-20T05:24:57.751Z,16.88
2019-03-20T05:25:57.740Z,16.88
2019-03-20T05:26:57.723Z,16.88
2019-03-20T05:27:57.731Z,22.50
2019-03-20T05:28:57.703Z,22.50
2019-03-20T05:29:57.691Z,22.50
2019-03-20T05:30:57.681Z,22.50
2019-03-20T05:31:57.670Z,28.12
2019-03-20T05:32:57.668Z,28.12
2019-03-20T05:33:57.650Z,28.12
2019-03-20T05:34:57.637Z,28.12
2019-03-20T05:35:57.630Z,33.75
2019-03-20T05:37:10.643Z,33.75
2019-03-20T05:37:57.607Z,33.75
2019-03-20T05:38:57.599Z,33.75
2019-03-20T05:39:57.591Z,39.38
2019-03-20T05:40:57.576Z,39.38
2019-03-20T05:41:57.562Z,45.00
2019-03-20T05:42:57.562Z,50.62
2019-03-20T05:43:57.545Z,67.50
2019-03-20T05:44:57.530Z,67.50
2019-03-20T05:45:57.522Z,56.25
2019-03-20T05:46:57.523Z,56.25
2019-03-20T05:47:57.510Z,67.50
2019-03-20T05:48:57.490Z,78.75
2019-03-20T05:49:57.479Z,90.00
2019-03-20T05:50:57.470Z,112.50
2019-03-20T05:51:57.464Z,123.75
2019-03-20T05:52:57.458Z,106.88
2019-03-20T05:53:57.442Z,73.12
2019-03-20T05:54:57.426Z,67.50
2019-03-20T05:55:57.415Z,67.50
2019-03-20T05:56:57.404Z,67.50
2019-03-20T05:57:57.401Z,67.50
2019-03-20T05:58:57.392Z,73.12
2019-03-20T05:59:57.373Z,73.12
2019-03-20T06:00:57.362Z,78.75
2019-03-20T06:01:57.350Z,78.75
2019-03-20T06:02:57.353Z,78.75
2019-03-20T06:03:57.329Z,78.75
2019-03-20T06:04:57.324Z,78.75
2019-03-20T06:05:57.309Z,84.38
2019-03-20T06:06:57.295Z,84.38
2019-03-20T06:07:57.303Z,90.00
2019-03-20T06:08:57.275Z,90.00
2019-03-20T06:09:57.269Z,95.62
2019-03-20T06:10:57.254Z,95.62
2019-03-20T06:11:57.243Z,95.62
2019-03-20T06:12:57.246Z,101.25
2019-03-20T06:13:57.222Z,101.25
2019-03-20T06:14:57.214Z,106.88
2019-03-20T06:15:57.202Z,112.50
2019-03-20T06:16:57.193Z,118.12
2019-03-20T06:17:57.192Z,118.12
2019-03-20T06:18:57.168Z,123.75
2019-03-20T06:19:57.159Z,129.38
2019-03-20T06:20:57.156Z,135.00
2019-03-20T06:21:57.138Z,135.00
2019-03-20T06:22:57.136Z,140.62
2019-03-20T06:23:57.117Z,140.62
2019-03-20T06:24:57.109Z,146.25
2019-03-20T06:25:57.098Z,146.25
2019-03-20T06:26:57.084Z,146.25
2019-03-20T06:27:57.084Z,151.88
2019-03-20T06:28:57.064Z,151.88
2019-03-20T06:29:57.051Z,157.50
2019-03-20T06:30:57.041Z,157.50
2019-03-20T06:31:57.030Z,157.50
2019-03-20T06:32:57.053Z,163.12
2019-03-20T06:33:57.013Z,163.12
2019-03-20T06:34:57.003Z,163.12
2019-03-20T06:35:56.992Z,168.75
2019-03-20T06:36:56.978Z,168.75
2019-03-20T06:37:56.967Z,168.75
2019-03-20T06:38:56.972Z,174.38
2019-03-20T06:39:56.945Z,174.38
2019-03-20T06:40:56.940Z,174.38
2019-03-20T06:41:56.924Z,174.38
2019-03-20T06:42:56.914Z,174.38
2019-03-20T06:43:56.918Z,174.38
2019-03-20T06:44:56.895Z,174.38
2019-03-20T06:45:56.882Z,180.00
2019-03-20T06:46:56.884Z,180.00
2019-03-20T06:47:56.864Z,180.00
2019-03-20T06:48:56.861Z,185.62
2019-03-20T06:49:56.838Z,185.62
2019-03-20T06:50:56.828Z,185.62
2019-03-20T06:51:56.820Z,191.25
2019-03-20T06:52:56.807Z,191.25
2019-03-20T06:53:56.805Z,196.88
2019-03-20T06:54:56.783Z,196.88
2019-03-20T06:55:56.782Z,202.50
2019-03-20T06:56:56.765Z,202.50
2019-03-20T06:57:56.752Z,208.12
2019-03-20T06:58:56.751Z,213.75
2019-03-20T06:59:56.732Z,219.38
2019-03-20T07:00:56.722Z,225.00
2019-03-20T07:01:56.712Z,230.62
2019-03-20T07:02:56.704Z,236.25
2019-03-20T07:03:56.749Z,241.88
2019-03-20T07:04:56.677Z,247.50
2019-03-20T07:05:56.681Z,253.12
2019-03-20T07:06:57.379Z,258.75
2019-03-20T07:07:56.650Z,258.75
2019-03-20T07:08:56.645Z,270.00
2019-03-20T07:09:56.624Z,270.00
2019-03-20T07:10:56.613Z,281.25
2019-03-20T07:11:56.601Z,281.25
2019-03-20T07:12:56.595Z,286.88
2019-03-20T07:13:56.593Z,292.50
2019-03-20T07:14:56.574Z,298.12
2019-03-20T07:15:56.559Z,309.38
2019-03-20T07:16:56.550Z,331.88
2019-03-20T07:17:56.541Z,365.62
2019-03-20T07:18:56.536Z,399.38
2019-03-20T07:19:56.518Z,433.12
2019-03-20T07:20:56.504Z,461.25
2019-03-20T07:21:56.495Z,495.00
2019-03-20T07:22:56.487Z,528.75
2019-03-20T07:23:56.482Z,562.50
2019-03-20T07:24:56.462Z,860.62
2019-03-20T07:25:56.452Z,2030.62
2019-03-20T07:26:56.443Z,3121.88
2019-03-20T07:27:56.439Z,3206.25
2019-03-20T07:28:56.429Z,3178.12
2019-03-20T07:29:57.384Z,3285.00
2019-03-20T07:30:56.479Z,3386.25
2019-03-20T07:31:56.387Z,3493.12
2019-03-20T07:32:56.379Z,3583.12
2019-03-20T07:33:56.376Z,3690.00
2019-03-20T07:34:56.353Z,3605.62
2019-03-20T07:35:56.343Z,3701.25
2019-03-20T07:36:56.334Z,3830.62
2019-03-20T07:37:56.569Z,3898.12
2019-03-20T07:38:56.327Z,3774.38
2019-03-20T07:39:56.311Z,3881.25
2019-03-20T07:40:56.290Z,3976.88
2019-03-20T07:41:56.278Z,3864.38
2019-03-20T07:42:56.278Z,3903.75
2019-03-20T07:43:56.276Z,4061.25
2019-03-20T07:44:56.249Z,3892.50
2019-03-20T07:45:56.235Z,3841.88
2019-03-20T07:46:56.242Z,4055.62
2019-03-20T07:47:56.215Z,4078.12
2019-03-20T07:48:56.216Z,3948.75
2019-03-20T07:49:56.194Z,4038.75
2019-03-20T07:50:56.184Z,4089.38
2019-03-20T07:51:56.173Z,4038.75
2019-03-20T07:52:56.160Z,4005.00
2019-03-20T07:53:56.162Z,4201.88
2019-03-20T07:54:56.141Z,4359.38
2019-03-20T07:55:56.129Z,4387.50
2019-03-20T07:56:56.121Z,4263.75
2019-03-20T07:57:56.108Z,4336.88
2019-03-20T07:58:56.129Z,4556.25
2019-03-20T07:59:56.091Z,4595.62
2019-03-20T08:00:56.078Z,4365.00
2019-03-20T08:01:56.067Z,4483.12
2019-03-20T08:02:56.060Z,4623.75
2019-03-20T08:03:56.056Z,4719.38
2019-03-20T08:04:56.048Z,4674.38
2019-03-20T08:05:56.028Z,4477.50
2019-03-20T08:06:56.016Z,4516.88
2019-03-20T08:08:06.436Z,4567.50
2019-03-20T08:08:56.995Z,4629.38
2019-03-20T08:09:56.420Z,4623.75
2019-03-20T08:10:55.975Z,4426.88
2019-03-20T08:11:55.965Z,4601.25
2019-03-20T08:12:55.961Z,4578.75
2019-03-20T08:13:55.943Z,4297.50
2019-03-20T08:14:55.947Z,4584.38
2019-03-20T08:15:55.927Z,4854.38
2019-03-20T08:16:55.915Z,4860.00
2019-03-20T08:17:55.904Z,4916.25
2019-03-20T08:18:55.894Z,4843.12
2019-03-20T08:19:55.933Z,4725.00
2019-03-20T08:20:55.873Z,4410.00
2019-03-20T08:21:55.862Z,2092.50
2019-03-20T08:22:55.852Z,646.88
2019-03-20T08:23:55.842Z,708.75
2019-03-20T08:24:55.934Z,725.62
2019-03-20T08:25:55.821Z,1350.00
2019-03-20T08:26:55.814Z,2761.88
2019-03-20T08:27:55.804Z,4455.00
2019-03-20T08:28:55.796Z,4612.50
2019-03-20T08:29:55.793Z,5040.00
2019-03-20T08:30:55.818Z,4944.38
2019-03-20T08:31:55.765Z,4837.50
2019-03-20T08:32:55.755Z,4966.88
2019-03-20T08:33:55.818Z,5360.62
2019-03-20T08:34:55.741Z,5130.00
2019-03-20T08:35:55.738Z,5175.00
2019-03-20T08:36:55.735Z,5158.12
2019-03-20T08:37:55.716Z,5023.12
2019-03-20T08:38:55.691Z,5085.00
2019-03-20T08:39:55.690Z,4348.12
2019-03-20T08:40:55.742Z,4899.38
2019-03-20T08:41:55.698Z,5242.50
2019-03-20T08:42:55.677Z,5242.50
2019-03-20T08:43:55.648Z,4123.12
2019-03-20T08:44:55.805Z,4809.38
2019-03-20T08:45:56.421Z,4443.75
2019-03-20T08:46:55.622Z,5135.62
2019-03-20T08:47:55.624Z,5186.25
2019-03-20T08:48:55.598Z,4803.75
2019-03-20T08:49:55.593Z,5141.25
2019-03-20T08:50:55.614Z,5321.25
2019-03-20T08:51:55.562Z,5191.88
2019-03-20T08:52:55.552Z,5079.38
2019-03-20T08:53:56.359Z,5040.00
2019-03-20T08:54:55.592Z,4736.25
2019-03-20T08:55:55.524Z,4308.75
2019-03-20T08:56:55.512Z,4601.25
2019-03-20T08:57:55.503Z,4753.12
2019-03-20T08:58:55.509Z,4871.25
2019-03-20T08:59:55.500Z,4573.12
2019-03-20T09:00:55.481Z,4696.88
2019-03-20T09:01:55.470Z,4921.88
2019-03-20T09:02:55.458Z,4696.88
2019-03-20T09:03:55.451Z,4758.75
2019-03-20T09:04:55.446Z,4680.00
2019-03-20T09:05:55.428Z,4803.75
2019-03-20T09:06:55.415Z,4803.75
2019-03-20T09:07:55.407Z,4601.25
2019-03-20T09:08:55.396Z,4584.38
2019-03-20T09:09:55.396Z,4533.75
2019-03-20T09:10:55.376Z,4376.25
2019-03-20T09:11:55.375Z,4426.88
2019-03-20T09:12:55.356Z,4488.75
2019-03-20T09:13:55.351Z,4753.12
2019-03-20T09:14:55.520Z,5034.38
2019-03-20T09:15:55.329Z,5169.38
2019-03-20T09:16:55.320Z,5124.38
2019-03-20T09:17:55.310Z,5248.12
2019-03-20T09:18:55.300Z,5180.62
2019-03-20T09:19:55.294Z,5068.12
2019-03-20T09:20:55.285Z,5079.38
2019-03-20T09:21:55.268Z,5113.12
2019-03-20T09:22:55.265Z,5079.38
2019-03-20T09:23:55.247Z,4860.00
2019-03-20T09:24:55.236Z,4545.00
2019-03-20T09:25:55.238Z,4038.75
2019-03-20T09:26:55.218Z,3532.50
2019-03-20T09:27:55.206Z,3015.00
2019-03-20T09:28:55.197Z,2356.88
2019-03-20T09:29:55.192Z,1760.62
2019-03-20T09:30:55.185Z,1254.38
2019-03-20T09:31:55.168Z,911.25
2019-03-20T09:32:55.161Z,720.00
2019-03-20T09:33:55.283Z,675.00
2019-03-20T09:34:55.150Z,669.38
2019-03-20T09:35:55.143Z,691.88
2019-03-20T09:36:55.117Z,703.12
2019-03-20T09:37:55.113Z,731.25
2019-03-20T09:38:55.096Z,1878.75
2019-03-20T09:39:55.088Z,3211.88
2019-03-20T09:40:55.086Z,3695.62
2019-03-20T09:41:55.070Z,4443.75
2019-03-20T09:42:55.060Z,4713.75
2019-03-20T09:43:55.051Z,3290.62
2019-03-20T09:44:55.032Z,1057.50
2019-03-20T09:45:56.926Z,618.75
2019-03-20T09:46:55.019Z,601.88
2019-03-20T09:47:55.007Z,585.00
2019-03-20T09:48:54.994Z,601.88
2019-03-20T09:49:54.983Z,815.62
2019-03-20T09:50:54.987Z,1198.12
2019-03-20T09:51:54.962Z,1091.25
2019-03-20T09:52:54.954Z,607.50
2019-03-20T09:53:54.947Z,545.62
2019-03-20T09:54:54.957Z,528.75
2019-03-20T09:55:54.930Z,551.25
2019-03-20T09:56:54.910Z,579.38
2019-03-20T09:57:54.902Z,568.12
2019-03-20T09:58:54.895Z,568.12
2019-03-20T09:59:54.880Z,826.88
2019-03-20T10:00:54.880Z,871.88
2019-03-20T10:01:54.869Z,843.75
2019-03-20T10:02:54.851Z,911.25
2019-03-20T10:03:54.841Z,973.12
2019-03-20T10:04:54.833Z,967.50
2019-03-20T10:05:54.829Z,781.88
2019-03-20T10:06:54.812Z,742.50
2019-03-20T10:07:54.804Z,776.25
2019-03-20T10:08:54.785Z,815.62
2019-03-20T10:09:54.778Z,607.50
2019-03-20T10:10:54.825Z,495.00
2019-03-20T10:11:54.757Z,483.75
2019-03-20T10:12:54.746Z,528.75
2019-03-20T10:13:54.733Z,500.62
2019-03-20T10:14:54.721Z,517.50
2019-03-20T10:15:54.712Z,556.88
2019-03-20T10:16:54.715Z,523.12
2019-03-20T10:17:54.697Z,540.00
2019-03-20T10:18:54.680Z,635.62
2019-03-20T10:19:54.671Z,787.50
2019-03-20T10:20:54.678Z,776.25
2019-03-20T10:21:54.668Z,646.88
2019-03-20T10:22:54.638Z,601.88
2019-03-20T10:23:54.630Z,624.38
2019-03-20T10:24:54.615Z,613.12
2019-03-20T10:25:54.605Z,545.62
2019-03-20T10:26:54.603Z,725.62
2019-03-20T10:27:54.583Z,1040.62
2019-03-20T10:28:54.575Z,973.12
2019-03-20T10:29:54.562Z,1057.50
2019-03-20T10:30:54.550Z,855.00
2019-03-20T10:31:54.551Z,697.50
2019-03-20T10:32:54.528Z,399.38
2019-03-20T10:33:54.524Z,534.38
2019-03-20T10:34:54.508Z,933.75
2019-03-20T10:35:54.499Z,1046.25
2019-03-20T10:36:54.500Z,1012.50
2019-03-20T10:37:54.479Z,978.75
2019-03-20T10:39:05.774Z,1125.00
2019-03-20T10:39:55.466Z,646.88
2019-03-20T10:40:54.444Z,787.50
2019-03-20T10:41:54.457Z,646.88
2019-03-20T10:42:54.426Z,579.38
2019-03-20T10:43:54.411Z,421.88
2019-03-20T10:44:54.406Z,748.12
2019-03-20T10:45:54.395Z,911.25
2019-03-20T10:46:54.388Z,562.50
2019-03-20T10:47:54.377Z,466.88
2019-03-20T10:48:56.354Z,601.88
2019-03-20T10:49:54.348Z,376.88
2019-03-20T10:50:54.343Z,371.25
2019-03-20T10:51:54.342Z,545.62
2019-03-20T10:52:54.322Z,517.50
2019-03-20T10:53:54.305Z,500.62
2019-03-20T10:54:54.295Z,506.25
2019-03-20T10:55:54.286Z,506.25
2019-03-20T10:56:54.284Z,433.12
2019-03-20T10:57:54.264Z,500.62
2019-03-20T10:58:54.262Z,489.38
2019-03-20T10:59:54.241Z,528.75
2019-03-20T11:00:54.232Z,540.00
2019-03-20T11:01:54.230Z,663.75
2019-03-20T11:02:54.219Z,804.38
2019-03-20T11:03:54.200Z,500.62
2019-03-20T11:04:54.196Z,534.38
2019-03-20T11:05:54.179Z,545.62
2019-03-20T11:06:54.189Z,534.38
2019-03-20T11:07:54.156Z,540.00
2019-03-20T11:08:54.148Z,461.25
2019-03-20T11:09:54.134Z,410.62
2019-03-20T11:10:54.125Z,540.00
2019-03-20T11:11:54.125Z,551.25
2019-03-20T11:12:54.108Z,528.75
2019-03-20T11:13:54.091Z,444.38
2019-03-20T11:14:54.081Z,399.38
2019-03-20T11:15:54.068Z,371.25
2019-03-20T11:16:54.068Z,393.75
2019-03-20T11:17:54.046Z,343.12
2019-03-20T11:18:54.057Z,354.38
2019-03-20T11:19:56.220Z,393.75
2019-03-20T11:20:54.015Z,427.50
2019-03-20T11:21:54.015Z,551.25
2019-03-20T11:22:53.993Z,523.12
2019-03-20T11:23:53.983Z,528.75
2019-03-20T11:24:53.973Z,562.50
2019-03-20T11:25:53.960Z,489.38
2019-03-20T11:26:53.952Z,579.38
2019-03-20T11:27:53.953Z,556.88
2019-03-20T11:28:53.939Z,556.88
2019-03-20T11:29:53.919Z,376.88
2019-03-20T11:30:53.909Z,343.12
2019-03-20T11:31:53.895Z,376.88
2019-03-20T11:32:53.896Z,416.25
2019-03-20T11:33:53.879Z,500.62
2019-03-20T11:34:53.865Z,703.12
2019-03-20T11:35:53.852Z,641.25
2019-03-20T11:36:53.843Z,669.38
2019-03-20T11:37:53.844Z,495.00
2019-03-20T11:38:53.820Z,500.62
2019-03-20T11:39:53.810Z,483.75
2019-03-20T11:40:53.799Z,630.00
2019-03-20T11:41:53.841Z,810.00
2019-03-20T11:42:53.793Z,877.50
2019-03-20T11:43:53.765Z,1029.38
2019-03-20T11:44:53.756Z,990.00
2019-03-20T11:45:53.747Z,900.00
2019-03-20T11:46:53.733Z,624.38
2019-03-20T11:47:53.734Z,360.00
2019-03-20T11:48:53.713Z,331.88
2019-03-20T11:49:53.703Z,348.75
2019-03-20T11:50:53.697Z,489.38
2019-03-20T11:51:53.687Z,1023.75
2019-03-20T11:52:53.684Z,973.12
2019-03-20T11:53:53.676Z,990.00
2019-03-20T11:54:53.666Z,978.75
2019-03-20T11:55:53.640Z,714.38
2019-03-20T11:56:53.626Z,646.88
2019-03-20T11:57:53.681Z,461.25
2019-03-20T11:58:53.627Z,517.50
2019-03-20T11:59:53.597Z,613.12
2019-03-20T12:00:53.601Z,495.00
2019-03-20T12:01:53.578Z,399.38
2019-03-20T12:02:53.574Z,360.00
2019-03-20T12:03:53.550Z,331.88
2019-03-20T12:04:54.080Z,326.25
2019-03-20T12:05:53.531Z,326.25
2019-03-20T12:06:53.522Z,337.50
2019-03-20T12:07:53.518Z,450.00
2019-03-20T12:08:53.496Z,472.50
2019-03-20T12:09:53.486Z,466.88
2019-03-20T12:10:53.479Z,354.38
2019-03-20T12:11:53.466Z,337.50
2019-03-20T12:12:53.503Z,399.38
2019-03-20T12:13:53.441Z,416.25
2019-03-20T12:14:53.430Z,360.00
2019-03-20T12:15:53.427Z,376.88
2019-03-20T12:16:53.411Z,331.88
2019-03-20T12:17:53.409Z,382.50
2019-03-20T12:18:53.389Z,551.25
2019-03-20T12:19:53.378Z,568.12
2019-03-20T12:20:53.368Z,590.62
2019-03-20T12:21:53.361Z,489.38
2019-03-20T12:22:53.356Z,382.50
2019-03-20T12:23:53.335Z,365.62
2019-03-20T12:24:53.323Z,309.38
2019-03-20T12:25:53.320Z,320.62
2019-03-20T12:26:53.303Z,343.12
2019-03-20T12:27:53.304Z,320.62
2019-03-20T12:28:53.286Z,303.75
2019-03-20T12:29:53.270Z,303.75
2019-03-20T12:30:53.259Z,360.00
2019-03-20T12:31:53.250Z,405.00
2019-03-20T12:32:53.251Z,444.38
2019-03-20T12:33:53.252Z,427.50
2019-03-20T12:34:53.217Z,382.50
2019-03-20T12:35:53.209Z,388.12
2019-03-20T12:36:53.231Z,348.75
2019-03-20T12:37:53.222Z,371.25
2019-03-20T12:38:53.173Z,405.00
2019-03-20T12:39:53.694Z,348.75
2019-03-20T12:40:53.152Z,382.50
2019-03-20T12:41:53.151Z,376.88
2019-03-20T12:42:53.131Z,438.75
2019-03-20T12:43:53.132Z,472.50
2019-03-20T12:44:53.109Z,466.88
2019-03-20T12:45:53.098Z,461.25
2019-03-20T12:46:53.089Z,455.62